sensor_id;sensor_type;location;lat;lon;timestamp;P1;durP1;ratioP1;P2;durP2;ratioP2
9964;SDS011;5023;53.554;9.964;2022-11-20T00:02:22;7.57;;;6.60;;
9964;SDS011;5023;53.554;9.964;2022-11-20T00:07:24;5.80;;;3.97;;
9964;SDS011;5023;53.554;9.964;2022-11-20T00:12:28;4.77;;;3.63;;
9964;SDS011;5023;53.554;9.964;2022-11-20T00:17:32;5.13;;;4.23;;
9964;SDS011;5023;53.554;9.964;2022-11-20T00:22:34;4.70;;;4.20;;
9964;SDS011;5023;53.554;9.964;2022-11-20T00:27:39;6.73;;;3.80;;
9964;SDS011;5023;53.554;9.964;2022-11-20T00:32:42;11.93;;;4.73;;
9964;SDS011;5023;53.554;9.964;2022-11-20T00:37:49;4.13;;;3.70;;
9964;SDS011;5023;53.554;9.964;2022-11-20T00:42:56;6.87;;;4.13;;
9964;SDS011;5023;53.554;9.964;2022-11-20T00:47:58;5.67;;;4.10;;
9964;SDS011;5023;53.554;9.964;2022-11-20T00:53:01;6.03;;;4.50;;
9964;SDS011;5023;53.554;9.964;2022-11-20T00:58:05;6.23;;;4.40;;
9964;SDS011;5023;53.554;9.964;2022-11-20T01:03:12;4.70;;;4.20;;
9964;SDS011;5023;53.554;9.964;2022-11-20T01:08:14;4.33;;;3.93;;
9964;SDS011;5023;53.554;9.964;2022-11-20T01:13:18;5.17;;;4.27;;
9964;SDS011;5023;53.554;9.964;2022-11-20T01:18:38;4.87;;;4.10;;
9964;SDS011;5023;53.554;9.964;2022-11-20T01:23:44;5.57;;;4.33;;
9964;SDS011;5023;53.554;9.964;2022-11-20T01:28:48;5.37;;;4.47;;
9964;SDS011;5023;53.554;9.964;2022-11-20T01:33:59;5.23;;;4.40;;
9964;SDS011;5023;53.554;9.964;2022-11-20T01:39:06;5.63;;;4.57;;
9964;SDS011;5023;53.554;9.964;2022-11-20T01:44:19;4.63;;;4.17;;
9964;SDS011;5023;53.554;9.964;2022-11-20T01:49:24;5.00;;;4.20;;
9964;SDS011;5023;53.554;9.964;2022-11-20T01:54:30;4.73;;;4.27;;
9964;SDS011;5023;53.554;9.964;2022-11-20T01:59:39;5.20;;;4.00;;
9964;SDS011;5023;53.554;9.964;2022-11-20T02:04:45;4.80;;;4.30;;
9964;SDS011;5023;53.554;9.964;2022-11-20T02:10:02;5.23;;;4.73;;
9964;SDS011;5023;53.554;9.964;2022-11-20T02:15:20;4.57;;;4.03;;
9964;SDS011;5023;53.554;9.964;2022-11-20T02:20:25;4.80;;;4.40;;
9964;SDS011;5023;53.554;9.964;2022-11-20T02:25:31;5.37;;;4.67;;
9964;SDS011;5023;53.554;9.964;2022-11-20T02:30:36;4.80;;;4.40;;
9964;SDS011;5023;53.554;9.964;2022-11-20T02:35:41;4.77;;;4.37;;
9964;SDS011;5023;53.554;9.964;2022-11-20T02:40:46;4.77;;;4.17;;
9964;SDS011;5023;53.554;9.964;2022-11-20T02:45:49;5.73;;;4.97;;
9964;SDS011;5023;53.554;9.964;2022-11-20T02:50:51;4.83;;;4.33;;
9964;SDS011;5023;53.554;9.964;2022-11-20T02:56:02;5.73;;;4.87;;
9964;SDS011;5023;53.554;9.964;2022-11-20T03:01:07;5.90;;;4.40;;
9964;SDS011;5023;53.554;9.964;2022-11-20T03:06:10;4.97;;;4.57;;
9964;SDS011;5023;53.554;9.964;2022-11-20T03:11:15;5.23;;;4.70;;
9964;SDS011;5023;53.554;9.964;2022-11-20T03:16:19;4.90;;;4.50;;
9964;SDS011;5023;53.554;9.964;2022-11-20T03:21:23;5.17;;;4.47;;
9964;SDS011;5023;53.554;9.964;2022-11-20T03:26:27;5.10;;;4.57;;
9964;SDS011;5023;53.554;9.964;2022-11-20T03:31:31;5.23;;;4.73;;
9964;SDS011;5023;53.554;9.964;2022-11-20T03:36:35;4.97;;;4.47;;
9964;SDS011;5023;53.554;9.964;2022-11-20T03:41:41;5.33;;;4.80;;
9964;SDS011;5023;53.554;9.964;2022-11-20T03:46:56;5.37;;;4.63;;
9964;SDS011;5023;53.554;9.964;2022-11-20T03:51:58;5.77;;;4.80;;
9964;SDS011;5023;53.554;9.964;2022-11-20T03:57:02;4.93;;;4.40;;
9964;SDS011;5023;53.554;9.964;2022-11-20T04:02:07;7.90;;;4.87;;
9964;SDS011;5023;53.554;9.964;2022-11-20T04:07:10;4.73;;;4.33;;
9964;SDS011;5023;53.554;9.964;2022-11-20T04:12:14;4.73;;;4.07;;
9964;SDS011;5023;53.554;9.964;2022-11-20T04:17:16;5.43;;;4.67;;
9964;SDS011;5023;53.554;9.964;2022-11-20T04:22:19;4.70;;;4.07;;
9964;SDS011;5023;53.554;9.964;2022-11-20T04:27:22;5.63;;;4.40;;
9964;SDS011;5023;53.554;9.964;2022-11-20T04:32:25;4.57;;;4.13;;
9964;SDS011;5023;53.554;9.964;2022-11-20T04:37:28;5.03;;;4.20;;
9964;SDS011;5023;53.554;9.964;2022-11-20T04:42:37;5.50;;;5.00;;
9964;SDS011;5023;53.554;9.964;2022-11-20T04:47:39;4.67;;;4.27;;
9964;SDS011;5023;53.554;9.964;2022-11-20T04:52:44;5.20;;;4.70;;
9964;SDS011;5023;53.554;9.964;2022-11-20T04:57:52;5.47;;;4.67;;
9964;SDS011;5023;53.554;9.964;2022-11-20T05:02:54;5.03;;;4.53;;
9964;SDS011;5023;53.554;9.964;2022-11-20T05:08:06;4.87;;;4.47;;
9964;SDS011;5023;53.554;9.964;2022-11-20T05:13:10;5.40;;;4.70;;
9964;SDS011;5023;53.554;9.964;2022-11-20T05:18:19;5.20;;;4.80;;
9964;SDS011;5023;53.554;9.964;2022-11-20T05:23:25;5.10;;;4.60;;
9964;SDS011;5023;53.554;9.964;2022-11-20T05:28:30;5.63;;;4.40;;
9964;SDS011;5023;53.554;9.964;2022-11-20T05:33:36;5.13;;;4.70;;
9964;SDS011;5023;53.554;9.964;2022-11-20T05:38:47;6.67;;;4.60;;
9964;SDS011;5023;53.554;9.964;2022-11-20T05:43:51;5.50;;;5.00;;
9964;SDS011;5023;53.554;9.964;2022-11-20T05:48:53;6.37;;;4.90;;
9964;SDS011;5023;53.554;9.964;2022-11-20T05:53:56;7.07;;;6.37;;
9964;SDS011;5023;53.554;9.964;2022-11-20T05:59:04;7.40;;;5.90;;
9964;SDS011;5023;53.554;9.964;2022-11-20T06:04:10;5.63;;;5.00;;
9964;SDS011;5023;53.554;9.964;2022-11-20T06:09:15;6.97;;;5.47;;
9964;SDS011;5023;53.554;9.964;2022-11-20T06:14:28;7.47;;;6.67;;
9964;SDS011;5023;53.554;9.964;2022-11-20T06:19:31;7.73;;;6.70;;
9964;SDS011;5023;53.554;9.964;2022-11-20T06:24:35;9.50;;;6.80;;
9964;SDS011;5023;53.554;9.964;2022-11-20T06:29:39;7.60;;;6.80;;
9964;SDS011;5023;53.554;9.964;2022-11-20T06:34:41;8.10;;;6.27;;
9964;SDS011;5023;53.554;9.964;2022-11-20T06:39:43;7.00;;;6.27;;
9964;SDS011;5023;53.554;9.964;2022-11-20T06:44:47;7.70;;;5.90;;
9964;SDS011;5023;53.554;9.964;2022-11-20T06:49:49;8.07;;;5.80;;
9964;SDS011;5023;53.554;9.964;2022-11-20T06:54:53;6.67;;;5.63;;
9964;SDS011;5023;53.554;9.964;2022-11-20T06:59:57;6.17;;;5.20;;
9964;SDS011;5023;53.554;9.964;2022-11-20T07:04:59;8.10;;;5.37;;
9964;SDS011;5023;53.554;9.964;2022-11-20T07:10:01;6.00;;;5.40;;
9964;SDS011;5023;53.554;9.964;2022-11-20T07:15:06;5.50;;;4.80;;
9964;SDS011;5023;53.554;9.964;2022-11-20T07:20:09;5.50;;;4.70;;
9964;SDS011;5023;53.554;9.964;2022-11-20T07:25:14;5.27;;;4.77;;
9964;SDS011;5023;53.554;9.964;2022-11-20T07:30:18;8.37;;;5.97;;
9964;SDS011;5023;53.554;9.964;2022-11-20T07:35:22;6.37;;;4.60;;
9964;SDS011;5023;53.554;9.964;2022-11-20T07:40:24;6.13;;;5.53;;
9964;SDS011;5023;53.554;9.964;2022-11-20T07:45:31;6.10;;;5.43;;
9964;SDS011;5023;53.554;9.964;2022-11-20T07:50:34;8.23;;;5.57;;
9964;SDS011;5023;53.554;9.964;2022-11-20T07:55:38;6.27;;;5.67;;
9964;SDS011;5023;53.554;9.964;2022-11-20T08:00:46;6.33;;;5.57;;
9964;SDS011;5023;53.554;9.964;2022-11-20T08:05:50;6.80;;;5.70;;
9964;SDS011;5023;53.554;9.964;2022-11-20T08:10:52;5.77;;;5.20;;
9964;SDS011;5023;53.554;9.964;2022-11-20T08:16:20;6.80;;;6.10;;
9964;SDS011;5023;53.554;9.964;2022-11-20T08:21:22;7.20;;;6.27;;
9964;SDS011;5023;53.554;9.964;2022-11-20T08:26:26;6.00;;;5.40;;
9964;SDS011;5023;53.554;9.964;2022-11-20T08:31:33;6.07;;;5.50;;
9964;SDS011;5023;53.554;9.964;2022-11-20T08:36:39;6.07;;;4.63;;
9964;SDS011;5023;53.554;9.964;2022-11-20T08:41:44;6.63;;;3.93;;
9964;SDS011;5023;53.554;9.964;2022-11-20T08:46:48;4.63;;;4.03;;
9964;SDS011;5023;53.554;9.964;2022-11-20T08:51:51;4.47;;;4.07;;
9964;SDS011;5023;53.554;9.964;2022-11-20T08:56:55;4.83;;;4.03;;
9964;SDS011;5023;53.554;9.964;2022-11-20T09:02:02;5.23;;;4.73;;
9964;SDS011;5023;53.554;9.964;2022-11-20T09:07:05;5.87;;;4.27;;
9964;SDS011;5023;53.554;9.964;2022-11-20T09:12:09;4.43;;;4.03;;
9964;SDS011;5023;53.554;9.964;2022-11-20T09:17:19;5.23;;;4.20;;
9964;SDS011;5023;53.554;9.964;2022-11-20T09:22:29;4.00;;;3.60;;
9964;SDS011;5023;53.554;9.964;2022-11-20T09:27:33;5.53;;;5.03;;
9964;SDS011;5023;53.554;9.964;2022-11-20T09:32:41;5.77;;;3.87;;
9964;SDS011;5023;53.554;9.964;2022-11-20T09:37:47;4.77;;;4.27;;
9964;SDS011;5023;53.554;9.964;2022-11-20T09:42:51;4.30;;;3.90;;
9964;SDS011;5023;53.554;9.964;2022-11-20T09:48:03;4.73;;;3.70;;
9964;SDS011;5023;53.554;9.964;2022-11-20T09:53:20;3.50;;;3.20;;
9964;SDS011;5023;53.554;9.964;2022-11-20T09:58:33;3.87;;;3.50;;
9964;SDS011;5023;53.554;9.964;2022-11-20T10:03:48;4.07;;;3.67;;
9964;SDS011;5023;53.554;9.964;2022-11-20T10:08:58;3.93;;;3.63;;
9964;SDS011;5023;53.554;9.964;2022-11-20T10:14:10;4.40;;;4.00;;
9964;SDS011;5023;53.554;9.964;2022-11-20T10:19:32;3.30;;;3.10;;
9964;SDS011;5023;53.554;9.964;2022-11-20T10:24:53;3.60;;;3.40;;
9964;SDS011;5023;53.554;9.964;2022-11-20T10:30:00;5.00;;;4.50;;
9964;SDS011;5023;53.554;9.964;2022-11-20T10:35:06;3.83;;;3.53;;
9964;SDS011;5023;53.554;9.964;2022-11-20T10:40:25;5.47;;;4.97;;
9964;SDS011;5023;53.554;9.964;2022-11-20T10:45:40;6.00;;;4.90;;
9964;SDS011;5023;53.554;9.964;2022-11-20T10:51:02;5.13;;;4.63;;
9964;SDS011;5023;53.554;9.964;2022-11-20T10:56:16;7.43;;;6.63;;
9964;SDS011;5023;53.554;9.964;2022-11-20T11:01:21;5.57;;;4.90;;
9964;SDS011;5023;53.554;9.964;2022-11-20T11:06:30;5.00;;;4.50;;
9964;SDS011;5023;53.554;9.964;2022-11-20T11:11:37;6.63;;;5.90;;
9964;SDS011;5023;53.554;9.964;2022-11-20T11:16:48;41.30;;;27.77;;
9964;SDS011;5023;53.554;9.964;2022-11-20T11:21:54;9.47;;;8.47;;
9964;SDS011;5023;53.554;9.964;2022-11-20T11:26:59;5.97;;;4.63;;
9964;SDS011;5023;53.554;9.964;2022-11-20T11:32:05;4.60;;;4.30;;
9964;SDS011;5023;53.554;9.964;2022-11-20T11:37:14;4.33;;;3.93;;
9964;SDS011;5023;53.554;9.964;2022-11-20T11:42:23;4.00;;;3.70;;
9964;SDS011;5023;53.554;9.964;2022-11-20T11:47:29;5.43;;;4.93;;
9964;SDS011;5023;53.554;9.964;2022-11-20T11:52:36;4.23;;;3.90;;
9964;SDS011;5023;53.554;9.964;2022-11-20T11:57:46;5.13;;;4.63;;
9964;SDS011;5023;53.554;9.964;2022-11-20T12:03:00;5.80;;;5.20;;
9964;SDS011;5023;53.554;9.964;2022-11-20T12:08:14;3.20;;;3.00;;
9964;SDS011;5023;53.554;9.964;2022-11-20T12:13:23;5.37;;;4.87;;
9964;SDS011;5023;53.554;9.964;2022-11-20T12:18:36;5.13;;;4.63;;
9964;SDS011;5023;53.554;9.964;2022-11-20T12:23:47;6.97;;;5.50;;
9964;SDS011;5023;53.554;9.964;2022-11-20T12:28:59;9.03;;;7.00;;
9964;SDS011;5023;53.554;9.964;2022-11-20T12:34:13;4.97;;;4.50;;
9964;SDS011;5023;53.554;9.964;2022-11-20T12:39:29;3.40;;;3.20;;
9964;SDS011;5023;53.554;9.964;2022-11-20T12:44:42;4.00;;;3.70;;
9964;SDS011;5023;53.554;9.964;2022-11-20T12:50:14;4.67;;;4.27;;
9964;SDS011;5023;53.554;9.964;2022-11-20T12:55:33;4.30;;;3.50;;
9964;SDS011;5023;53.554;9.964;2022-11-20T13:00:52;4.00;;;3.70;;
9964;SDS011;5023;53.554;9.964;2022-11-20T13:06:45;7.67;;;6.87;;
9964;SDS011;5023;53.554;9.964;2022-11-20T13:11:50;5.07;;;3.70;;
9964;SDS011;5023;53.554;9.964;2022-11-20T13:17:04;3.90;;;3.60;;
9964;SDS011;5023;53.554;9.964;2022-11-20T13:22:23;4.00;;;3.60;;
9964;SDS011;5023;53.554;9.964;2022-11-20T13:27:29;5.90;;;5.30;;
9964;SDS011;5023;53.554;9.964;2022-11-20T13:32:49;10.03;;;7.37;;
9964;SDS011;5023;53.554;9.964;2022-11-20T13:38:03;3.77;;;3.37;;
9964;SDS011;5023;53.554;9.964;2022-11-20T13:43:15;2.90;;;2.70;;
9964;SDS011;5023;53.554;9.964;2022-11-20T13:48:28;5.37;;;4.60;;
9964;SDS011;5023;53.554;9.964;2022-11-20T13:53:41;3.50;;;3.20;;
9964;SDS011;5023;53.554;9.964;2022-11-20T13:59:08;2.87;;;2.67;;
9964;SDS011;5023;53.554;9.964;2022-11-20T14:04:25;3.47;;;3.17;;
9964;SDS011;5023;53.554;9.964;2022-11-20T14:09:30;4.57;;;4.17;;
9964;SDS011;5023;53.554;9.964;2022-11-20T14:14:37;3.87;;;3.57;;
9964;SDS011;5023;53.554;9.964;2022-11-20T14:19:52;4.30;;;3.90;;
9964;SDS011;5023;53.554;9.964;2022-11-20T14:25:04;3.60;;;3.30;;
9964;SDS011;5023;53.554;9.964;2022-11-20T14:30:14;5.13;;;4.00;;
9964;SDS011;5023;53.554;9.964;2022-11-20T14:35:33;5.07;;;4.13;;
9964;SDS011;5023;53.554;9.964;2022-11-20T14:40:37;4.67;;;3.67;;
9964;SDS011;5023;53.554;9.964;2022-11-20T14:45:41;4.33;;;4.03;;
9964;SDS011;5023;53.554;9.964;2022-11-20T14:50:49;3.53;;;3.30;;
9964;SDS011;5023;53.554;9.964;2022-11-20T14:55:59;6.93;;;6.17;;
9964;SDS011;5023;53.554;9.964;2022-11-20T15:01:07;8.60;;;7.70;;
9964;SDS011;5023;53.554;9.964;2022-11-20T15:06:15;7.53;;;6.53;;
9964;SDS011;5023;53.554;9.964;2022-11-20T15:11:29;4.17;;;3.87;;
9964;SDS011;5023;53.554;9.964;2022-11-20T15:16:33;4.90;;;4.30;;
9964;SDS011;5023;53.554;9.964;2022-11-20T15:21:36;6.73;;;4.53;;
9964;SDS011;5023;53.554;9.964;2022-11-20T15:26:38;8.30;;;5.73;;
9964;SDS011;5023;53.554;9.964;2022-11-20T15:31:46;7.03;;;5.10;;
9964;SDS011;5023;53.554;9.964;2022-11-20T15:36:49;7.13;;;6.10;;
9964;SDS011;5023;53.554;9.964;2022-11-20T15:41:53;5.77;;;5.13;;
9964;SDS011;5023;53.554;9.964;2022-11-20T15:46:57;4.40;;;4.00;;
9964;SDS011;5023;53.554;9.964;2022-11-20T15:52:00;5.00;;;4.17;;
9964;SDS011;5023;53.554;9.964;2022-11-20T15:57:03;3.80;;;3.50;;
9964;SDS011;5023;53.554;9.964;2022-11-20T16:02:09;4.50;;;4.10;;
9964;SDS011;5023;53.554;9.964;2022-11-20T16:07:13;5.70;;;5.10;;
9964;SDS011;5023;53.554;9.964;2022-11-20T16:12:18;5.03;;;4.60;;
9964;SDS011;5023;53.554;9.964;2022-11-20T16:17:38;4.30;;;3.97;;
9964;SDS011;5023;53.554;9.964;2022-11-20T16:22:45;5.40;;;4.23;;
9964;SDS011;5023;53.554;9.964;2022-11-20T16:27:48;4.70;;;4.30;;
9964;SDS011;5023;53.554;9.964;2022-11-20T16:33:00;8.40;;;6.30;;
9964;SDS011;5023;53.554;9.964;2022-11-20T16:38:10;7.47;;;6.33;;
9964;SDS011;5023;53.554;9.964;2022-11-20T16:43:13;7.30;;;5.67;;
9964;SDS011;5023;53.554;9.964;2022-11-20T16:48:17;4.93;;;4.53;;
9964;SDS011;5023;53.554;9.964;2022-11-20T16:53:23;5.30;;;4.57;;
9964;SDS011;5023;53.554;9.964;2022-11-20T16:58:33;7.03;;;5.30;;
9964;SDS011;5023;53.554;9.964;2022-11-20T17:03:44;7.65;;;6.95;;
9964;SDS011;5023;53.554;9.964;2022-11-20T17:09:05;6.57;;;5.87;;
9964;SDS011;5023;53.554;9.964;2022-11-20T17:14:09;11.37;;;5.80;;
9964;SDS011;5023;53.554;9.964;2022-11-20T17:19:18;5.20;;;4.70;;
9964;SDS011;5023;53.554;9.964;2022-11-20T17:24:22;7.13;;;6.30;;
9964;SDS011;5023;53.554;9.964;2022-11-20T17:29:26;7.60;;;6.07;;
9964;SDS011;5023;53.554;9.964;2022-11-20T17:34:30;6.13;;;5.50;;
9964;SDS011;5023;53.554;9.964;2022-11-20T17:39:33;12.00;;;8.57;;
9964;SDS011;5023;53.554;9.964;2022-11-20T17:44:40;7.27;;;6.50;;
9964;SDS011;5023;53.554;9.964;2022-11-20T17:49:47;11.30;;;8.80;;
9964;SDS011;5023;53.554;9.964;2022-11-20T17:55:01;8.63;;;7.73;;
9964;SDS011;5023;53.554;9.964;2022-11-20T18:00:09;16.63;;;13.63;;
9964;SDS011;5023;53.554;9.964;2022-11-20T18:05:25;8.07;;;6.93;;
9964;SDS011;5023;53.554;9.964;2022-11-20T18:10:30;12.20;;;10.20;;
9964;SDS011;5023;53.554;9.964;2022-11-20T18:15:35;9.73;;;8.40;;
9964;SDS011;5023;53.554;9.964;2022-11-20T18:20:40;9.13;;;8.17;;
9964;SDS011;5023;53.554;9.964;2022-11-20T18:25:42;10.87;;;8.97;;
9964;SDS011;5023;53.554;9.964;2022-11-20T18:30:47;16.80;;;13.23;;
9964;SDS011;5023;53.554;9.964;2022-11-20T18:36:11;15.67;;;12.90;;
9964;SDS011;5023;53.554;9.964;2022-11-20T18:41:15;18.37;;;14.00;;
9964;SDS011;5023;53.554;9.964;2022-11-20T18:46:33;19.13;;;15.77;;
9964;SDS011;5023;53.554;9.964;2022-11-20T18:51:37;18.30;;;14.90;;
9964;SDS011;5023;53.554;9.964;2022-11-20T18:56:42;18.40;;;15.37;;
9964;SDS011;5023;53.554;9.964;2022-11-20T19:01:45;20.70;;;16.13;;
9964;SDS011;5023;53.554;9.964;2022-11-20T19:06:52;18.67;;;15.00;;
9964;SDS011;5023;53.554;9.964;2022-11-20T19:12:01;21.47;;;17.90;;
9964;SDS011;5023;53.554;9.964;2022-11-20T19:17:05;23.20;;;16.33;;
9964;SDS011;5023;53.554;9.964;2022-11-20T19:22:21;20.53;;;16.33;;
9964;SDS011;5023;53.554;9.964;2022-11-20T19:27:26;30.27;;;23.43;;
9964;SDS011;5023;53.554;9.964;2022-11-20T19:32:44;20.03;;;16.80;;
9964;SDS011;5023;53.554;9.964;2022-11-20T19:37:54;21.00;;;16.97;;
9964;SDS011;5023;53.554;9.964;2022-11-20T19:42:59;22.53;;;18.10;;
9964;SDS011;5023;53.554;9.964;2022-11-20T19:48:10;25.07;;;17.37;;
9964;SDS011;5023;53.554;9.964;2022-11-20T19:53:17;22.47;;;17.60;;
9964;SDS011;5023;53.554;9.964;2022-11-20T19:58:27;19.80;;;16.57;;
9964;SDS011;5023;53.554;9.964;2022-11-20T20:03:33;23.47;;;16.73;;
9964;SDS011;5023;53.554;9.964;2022-11-20T20:08:39;23.17;;;18.33;;
9964;SDS011;5023;53.554;9.964;2022-11-20T20:13:44;19.67;;;16.13;;
9964;SDS011;5023;53.554;9.964;2022-11-20T20:18:46;21.67;;;17.20;;
9964;SDS011;5023;53.554;9.964;2022-11-20T20:23:51;22.40;;;16.50;;
9964;SDS011;5023;53.554;9.964;2022-11-20T20:28:56;26.50;;;20.83;;
9964;SDS011;5023;53.554;9.964;2022-11-20T20:33:59;23.93;;;16.87;;
9964;SDS011;5023;53.554;9.964;2022-11-20T20:39:03;21.80;;;17.87;;
9964;SDS011;5023;53.554;9.964;2022-11-20T20:44:09;20.37;;;16.30;;
9964;SDS011;5023;53.554;9.964;2022-11-20T20:49:32;22.43;;;17.60;;
9964;SDS011;5023;53.554;9.964;2022-11-20T20:54:38;19.27;;;16.27;;
9964;SDS011;5023;53.554;9.964;2022-11-20T20:59:42;22.03;;;17.50;;
9964;SDS011;5023;53.554;9.964;2022-11-20T21:04:45;22.30;;;17.13;;
9964;SDS011;5023;53.554;9.964;2022-11-20T21:09:50;21.80;;;17.73;;
9964;SDS011;5023;53.554;9.964;2022-11-20T21:14:59;22.27;;;17.80;;
9964;SDS011;5023;53.554;9.964;2022-11-20T21:20:05;21.73;;;17.80;;
9964;SDS011;5023;53.554;9.964;2022-11-20T21:25:51;22.30;;;17.40;;
9964;SDS011;5023;53.554;9.964;2022-11-20T21:31:00;23.13;;;18.03;;
9964;SDS011;5023;53.554;9.964;2022-11-20T21:36:11;21.10;;;17.77;;
9964;SDS011;5023;53.554;9.964;2022-11-20T21:41:16;33.43;;;24.67;;
9964;SDS011;5023;53.554;9.964;2022-11-20T21:46:21;93.57;;;57.07;;
9964;SDS011;5023;53.554;9.964;2022-11-20T21:51:25;25.47;;;20.33;;
9964;SDS011;5023;53.554;9.964;2022-11-20T21:56:30;24.93;;;18.57;;
9964;SDS011;5023;53.554;9.964;2022-11-20T22:01:37;23.23;;;18.13;;
9964;SDS011;5023;53.554;9.964;2022-11-20T22:06:45;23.13;;;18.70;;
9964;SDS011;5023;53.554;9.964;2022-11-20T22:11:49;23.63;;;18.50;;
9964;SDS011;5023;53.554;9.964;2022-11-20T22:16:52;22.73;;;18.07;;
9964;SDS011;5023;53.554;9.964;2022-11-20T22:21:55;27.03;;;19.17;;
9964;SDS011;5023;53.554;9.964;2022-11-20T22:26:59;23.63;;;19.13;;
9964;SDS011;5023;53.554;9.964;2022-11-20T22:32:23;24.20;;;18.83;;
9964;SDS011;5023;53.554;9.964;2022-11-20T22:37:27;25.67;;;19.53;;
9964;SDS011;5023;53.554;9.964;2022-11-20T22:42:30;26.00;;;20.13;;
9964;SDS011;5023;53.554;9.964;2022-11-20T22:47:52;28.33;;;21.13;;
9964;SDS011;5023;53.554;9.964;2022-11-20T22:52:55;25.53;;;19.50;;
9964;SDS011;5023;53.554;9.964;2022-11-20T22:58:02;25.17;;;19.40;;
9964;SDS011;5023;53.554;9.964;2022-11-20T23:03:04;25.97;;;19.77;;
9964;SDS011;5023;53.554;9.964;2022-11-20T23:08:10;25.17;;;19.67;;
9964;SDS011;5023;53.554;9.964;2022-11-20T23:13:15;30.57;;;20.13;;
9964;SDS011;5023;53.554;9.964;2022-11-20T23:18:21;25.53;;;19.47;;
9964;SDS011;5023;53.554;9.964;2022-11-20T23:23:24;28.83;;;21.50;;
9964;SDS011;5023;53.554;9.964;2022-11-20T23:28:28;27.10;;;19.87;;
9964;SDS011;5023;53.554;9.964;2022-11-20T23:33:30;30.70;;;21.50;;
9964;SDS011;5023;53.554;9.964;2022-11-20T23:38:36;24.73;;;19.80;;
9964;SDS011;5023;53.554;9.964;2022-11-20T23:43:41;27.07;;;21.00;;
9964;SDS011;5023;53.554;9.964;2022-11-20T23:48:44;25.67;;;19.97;;
9964;SDS011;5023;53.554;9.964;2022-11-20T23:53:46;28.03;;;20.60;;
9964;SDS011;5023;53.554;9.964;2022-11-20T23:58:51;26.87;;;19.27;;
